sensor_id;sensor_type;location;lat;lon;timestamp;temperature;humidity
22544;DHT22;11438;52.044;8.716;2023-04-25T00:00:29;11.20;93.60
22544;DHT22;11438;52.044;8.716;2023-04-25T00:02:55;11.20;93.60
22544;DHT22;11438;52.044;8.716;2023-04-25T00:05:26;11.20;93.60
22544;DHT22;11438;52.044;8.716;2023-04-25T00:07:52;11.20;93.60
22544;DHT22;11438;52.044;8.716;2023-04-25T00:10:18;11.20;93.70
22544;DHT22;11438;52.044;8.716;2023-04-25T00:12:44;11.20;93.70
22544;DHT22;11438;52.044;8.716;2023-04-25T00:15:10;11.20;93.70
22544;DHT22;11438;52.044;8.716;2023-04-25T00:17:35;11.20;93.70
22544;DHT22;11438;52.044;8.716;2023-04-25T00:20:04;11.20;93.70
22544;DHT22;11438;52.044;8.716;2023-04-25T00:22:35;11.20;93.80
22544;DHT22;11438;52.044;8.716;2023-04-25T00:25:03;11.20;93.80
22544;DHT22;11438;52.044;8.716;2023-04-25T00:27:29;11.20;93.90
22544;DHT22;11438;52.044;8.716;2023-04-25T00:29:54;11.10;93.90
22544;DHT22;11438;52.044;8.716;2023-04-25T00:32:20;11.20;94.10
22544;DHT22;11438;52.044;8.716;2023-04-25T00:34:45;11.10;94.30
22544;DHT22;11438;52.044;8.716;2023-04-25T00:37:11;11.10;94.60
22544;DHT22;11438;52.044;8.716;2023-04-25T00:39:37;11.10;94.30
22544;DHT22;11438;52.044;8.716;2023-04-25T00:42:03;11.10;94.40
22544;DHT22;11438;52.044;8.716;2023-04-25T00:44:30;11.10;94.40
22544;DHT22;11438;52.044;8.716;2023-04-25T00:46:55;11.10;94.50
22544;DHT22;11438;52.044;8.716;2023-04-25T00:49:21;11.10;94.50
22544;DHT22;11438;52.044;8.716;2023-04-25T00:51:47;11.00;94.50
22544;DHT22;11438;52.044;8.716;2023-04-25T00:54:13;11.00;94.60
22544;DHT22;11438;52.044;8.716;2023-04-25T00:56:39;11.00;94.70
22544;DHT22;11438;52.044;8.716;2023-04-25T00:59:05;11.00;94.80
22544;DHT22;11438;52.044;8.716;2023-04-25T01:01:31;11.00;94.80
22544;DHT22;11438;52.044;8.716;2023-04-25T01:03:58;11.00;94.90
22544;DHT22;11438;52.044;8.716;2023-04-25T01:06:25;11.00;94.90
22544;DHT22;11438;52.044;8.716;2023-04-25T01:08:51;10.90;95.00
22544;DHT22;11438;52.044;8.716;2023-04-25T01:11:17;10.90;95.10
22544;DHT22;11438;52.044;8.716;2023-04-25T01:13:43;10.90;95.20
22544;DHT22;11438;52.044;8.716;2023-04-25T01:16:08;10.90;95.70
22544;DHT22;11438;52.044;8.716;2023-04-25T01:18:34;10.90;95.20
22544;DHT22;11438;52.044;8.716;2023-04-25T01:21:10;10.90;95.30
22544;DHT22;11438;52.044;8.716;2023-04-25T01:23:37;10.90;95.30
22544;DHT22;11438;52.044;8.716;2023-04-25T01:26:04;10.90;95.30
22544;DHT22;11438;52.044;8.716;2023-04-25T01:28:29;10.90;95.70
22544;DHT22;11438;52.044;8.716;2023-04-25T01:30:56;10.90;95.40
22544;DHT22;11438;52.044;8.716;2023-04-25T01:33:22;10.90;95.50
22544;DHT22;11438;52.044;8.716;2023-04-25T01:35:48;10.90;95.50
22544;DHT22;11438;52.044;8.716;2023-04-25T01:38:14;10.90;95.60
22544;DHT22;11438;52.044;8.716;2023-04-25T01:40:40;10.90;95.60
22544;DHT22;11438;52.044;8.716;2023-04-25T01:43:07;10.90;95.70
22544;DHT22;11438;52.044;8.716;2023-04-25T01:45:37;10.90;95.70
22544;DHT22;11438;52.044;8.716;2023-04-25T01:48:04;10.90;95.80
22544;DHT22;11438;52.044;8.716;2023-04-25T01:50:30;10.90;95.90
22544;DHT22;11438;52.044;8.716;2023-04-25T01:52:56;10.90;96.00
22544;DHT22;11438;52.044;8.716;2023-04-25T01:55:22;10.90;96.00
22544;DHT22;11438;52.044;8.716;2023-04-25T01:57:47;10.90;96.00
22544;DHT22;11438;52.044;8.716;2023-04-25T02:00:13;10.90;96.20
22544;DHT22;11438;52.044;8.716;2023-04-25T02:02:39;10.90;96.30
22544;DHT22;11438;52.044;8.716;2023-04-25T02:05:04;10.90;96.30
22544;DHT22;11438;52.044;8.716;2023-04-25T02:07:30;10.90;96.40
22544;DHT22;11438;52.044;8.716;2023-04-25T02:09:57;10.80;96.50
22544;DHT22;11438;52.044;8.716;2023-04-25T02:12:22;10.80;96.50
22544;DHT22;11438;52.044;8.716;2023-04-25T02:14:48;10.80;96.70
22544;DHT22;11438;52.044;8.716;2023-04-25T02:17:13;10.80;96.80
22544;DHT22;11438;52.044;8.716;2023-04-25T02:19:39;10.80;97.00
22544;DHT22;11438;52.044;8.716;2023-04-25T02:22:05;10.80;97.10
22544;DHT22;11438;52.044;8.716;2023-04-25T02:24:30;10.70;97.20
22544;DHT22;11438;52.044;8.716;2023-04-25T02:26:57;10.70;97.20
22544;DHT22;11438;52.044;8.716;2023-04-25T02:29:22;10.70;97.30
22544;DHT22;11438;52.044;8.716;2023-04-25T02:31:48;10.70;97.40
22544;DHT22;11438;52.044;8.716;2023-04-25T02:34:13;10.70;97.50
22544;DHT22;11438;52.044;8.716;2023-04-25T02:36:39;10.70;97.50
22544;DHT22;11438;52.044;8.716;2023-04-25T02:39:05;10.70;97.70
22544;DHT22;11438;52.044;8.716;2023-04-25T02:41:30;10.70;97.80
22544;DHT22;11438;52.044;8.716;2023-04-25T02:43:56;10.70;97.70
22544;DHT22;11438;52.044;8.716;2023-04-25T02:46:21;10.70;97.80
22544;DHT22;11438;52.044;8.716;2023-04-25T02:48:47;10.70;97.80
22544;DHT22;11438;52.044;8.716;2023-04-25T02:51:12;10.70;97.80
22544;DHT22;11438;52.044;8.716;2023-04-25T02:53:39;10.80;97.80
22544;DHT22;11438;52.044;8.716;2023-04-25T02:56:04;10.70;97.70
22544;DHT22;11438;52.044;8.716;2023-04-25T02:58:30;10.80;97.60
22544;DHT22;11438;52.044;8.716;2023-04-25T03:00:56;10.80;97.60
22544;DHT22;11438;52.044;8.716;2023-04-25T03:03:21;10.80;97.60
22544;DHT22;11438;52.044;8.716;2023-04-25T03:05:50;10.80;97.60
22544;DHT22;11438;52.044;8.716;2023-04-25T03:08:16;10.70;97.60
22544;DHT22;11438;52.044;8.716;2023-04-25T03:10:42;10.80;97.50
22544;DHT22;11438;52.044;8.716;2023-04-25T03:13:08;10.70;97.50
22544;DHT22;11438;52.044;8.716;2023-04-25T03:15:35;10.70;97.50
22544;DHT22;11438;52.044;8.716;2023-04-25T03:18:01;10.70;97.50
22544;DHT22;11438;52.044;8.716;2023-04-25T03:20:27;10.70;97.60
22544;DHT22;11438;52.044;8.716;2023-04-25T03:22:52;10.70;97.60
22544;DHT22;11438;52.044;8.716;2023-04-25T03:25:18;10.70;97.70
22544;DHT22;11438;52.044;8.716;2023-04-25T03:27:44;10.70;97.70
22544;DHT22;11438;52.044;8.716;2023-04-25T03:30:09;10.70;97.70
22544;DHT22;11438;52.044;8.716;2023-04-25T03:32:35;10.70;97.70
22544;DHT22;11438;52.044;8.716;2023-04-25T03:35:01;10.70;97.80
22544;DHT22;11438;52.044;8.716;2023-04-25T03:37:26;10.70;97.80
22544;DHT22;11438;52.044;8.716;2023-04-25T03:39:52;10.70;97.80
22544;DHT22;11438;52.044;8.716;2023-04-25T03:42:17;10.70;97.90
22544;DHT22;11438;52.044;8.716;2023-04-25T03:44:43;10.70;97.90
22544;DHT22;11438;52.044;8.716;2023-04-25T03:47:08;10.70;97.90
22544;DHT22;11438;52.044;8.716;2023-04-25T03:49:34;10.70;97.90
22544;DHT22;11438;52.044;8.716;2023-04-25T03:52:01;10.70;97.80
22544;DHT22;11438;52.044;8.716;2023-04-25T03:54:26;10.70;97.80
22544;DHT22;11438;52.044;8.716;2023-04-25T03:56:52;10.70;97.80
22544;DHT22;11438;52.044;8.716;2023-04-25T03:59:18;10.70;97.80
22544;DHT22;11438;52.044;8.716;2023-04-25T04:01:43;10.70;97.80
22544;DHT22;11438;52.044;8.716;2023-04-25T04:04:09;10.70;97.80
22544;DHT22;11438;52.044;8.716;2023-04-25T04:06:34;10.70;97.60
22544;DHT22;11438;52.044;8.716;2023-04-25T04:09:00;10.70;97.60
22544;DHT22;11438;52.044;8.716;2023-04-25T04:11:25;10.70;97.60
22544;DHT22;11438;52.044;8.716;2023-04-25T04:13:51;10.70;97.70
22544;DHT22;11438;52.044;8.716;2023-04-25T04:16:16;10.60;97.60
22544;DHT22;11438;52.044;8.716;2023-04-25T04:18:42;10.60;97.60
22544;DHT22;11438;52.044;8.716;2023-04-25T04:21:07;10.60;97.60
22544;DHT22;11438;52.044;8.716;2023-04-25T04:23:33;10.60;97.50
22544;DHT22;11438;52.044;8.716;2023-04-25T04:25:59;10.60;97.60
22544;DHT22;11438;52.044;8.716;2023-04-25T04:28:25;10.60;97.60
22544;DHT22;11438;52.044;8.716;2023-04-25T04:30:52;10.50;97.50
22544;DHT22;11438;52.044;8.716;2023-04-25T04:33:17;10.60;97.60
22544;DHT22;11438;52.044;8.716;2023-04-25T04:35:46;10.50;97.60
22544;DHT22;11438;52.044;8.716;2023-04-25T04:38:12;10.50;97.60
22544;DHT22;11438;52.044;8.716;2023-04-25T04:40:40;10.50;97.50
22544;DHT22;11438;52.044;8.716;2023-04-25T04:43:08;10.50;97.50
22544;DHT22;11438;52.044;8.716;2023-04-25T04:45:36;10.50;97.60
22544;DHT22;11438;52.044;8.716;2023-04-25T04:48:05;10.50;97.50
22544;DHT22;11438;52.044;8.716;2023-04-25T04:50:30;10.50;97.50
22544;DHT22;11438;52.044;8.716;2023-04-25T04:52:57;10.50;97.50
22544;DHT22;11438;52.044;8.716;2023-04-25T04:55:23;10.50;97.60
22544;DHT22;11438;52.044;8.716;2023-04-25T04:57:49;10.50;97.50
22544;DHT22;11438;52.044;8.716;2023-04-25T05:00:14;10.50;97.50
22544;DHT22;11438;52.044;8.716;2023-04-25T05:02:41;10.50;97.40
22544;DHT22;11438;52.044;8.716;2023-04-25T05:05:06;10.50;97.40
22544;DHT22;11438;52.044;8.716;2023-04-25T05:07:33;10.40;97.30
22544;DHT22;11438;52.044;8.716;2023-04-25T05:09:59;10.40;97.30
22544;DHT22;11438;52.044;8.716;2023-04-25T05:12:24;10.40;97.20
22544;DHT22;11438;52.044;8.716;2023-04-25T05:14:50;10.40;97.30
22544;DHT22;11438;52.044;8.716;2023-04-25T05:17:15;10.40;97.20
22544;DHT22;11438;52.044;8.716;2023-04-25T05:19:41;10.40;97.30
22544;DHT22;11438;52.044;8.716;2023-04-25T05:22:06;10.40;97.30
22544;DHT22;11438;52.044;8.716;2023-04-25T05:24:32;10.40;97.30
22544;DHT22;11438;52.044;8.716;2023-04-25T05:26:57;10.40;97.30
22544;DHT22;11438;52.044;8.716;2023-04-25T05:29:23;10.40;97.60
22544;DHT22;11438;52.044;8.716;2023-04-25T05:31:48;10.40;97.20
22544;DHT22;11438;52.044;8.716;2023-04-25T05:34:14;10.40;97.20
22544;DHT22;11438;52.044;8.716;2023-04-25T05:36:40;10.40;97.20
22544;DHT22;11438;52.044;8.716;2023-04-25T05:39:06;10.40;97.20
22544;DHT22;11438;52.044;8.716;2023-04-25T05:41:31;10.50;97.30
22544;DHT22;11438;52.044;8.716;2023-04-25T05:43:57;10.50;97.30
22544;DHT22;11438;52.044;8.716;2023-04-25T05:46:22;10.50;97.20
22544;DHT22;11438;52.044;8.716;2023-04-25T05:48:48;10.50;97.10
22544;DHT22;11438;52.044;8.716;2023-04-25T05:51:13;10.50;97.10
22544;DHT22;11438;52.044;8.716;2023-04-25T05:53:39;10.50;97.00
22544;DHT22;11438;52.044;8.716;2023-04-25T05:56:05;10.50;96.90
22544;DHT22;11438;52.044;8.716;2023-04-25T05:58:30;10.50;96.90
22544;DHT22;11438;52.044;8.716;2023-04-25T06:00:56;10.50;97.00
22544;DHT22;11438;52.044;8.716;2023-04-25T06:03:21;10.60;97.00
22544;DHT22;11438;52.044;8.716;2023-04-25T06:05:47;10.60;96.90
22544;DHT22;11438;52.044;8.716;2023-04-25T06:08:12;10.60;96.90
22544;DHT22;11438;52.044;8.716;2023-04-25T06:10:38;10.60;96.80
22544;DHT22;11438;52.044;8.716;2023-04-25T06:13:04;10.60;96.80
22544;DHT22;11438;52.044;8.716;2023-04-25T06:15:30;10.70;96.80
22544;DHT22;11438;52.044;8.716;2023-04-25T06:17:58;10.70;96.70
22544;DHT22;11438;52.044;8.716;2023-04-25T06:20:24;10.70;96.60
22544;DHT22;11438;52.044;8.716;2023-04-25T06:22:50;10.70;96.50
22544;DHT22;11438;52.044;8.716;2023-04-25T06:25:17;10.70;96.50
22544;DHT22;11438;52.044;8.716;2023-04-25T06:27:42;10.80;96.70
22544;DHT22;11438;52.044;8.716;2023-04-25T06:30:08;10.80;96.40
22544;DHT22;11438;52.044;8.716;2023-04-25T06:32:34;10.90;96.50
22544;DHT22;11438;52.044;8.716;2023-04-25T06:35:00;10.90;96.40
22544;DHT22;11438;52.044;8.716;2023-04-25T06:37:25;10.90;96.20
22544;DHT22;11438;52.044;8.716;2023-04-25T06:39:51;11.00;96.20
22544;DHT22;11438;52.044;8.716;2023-04-25T06:42:16;11.00;96.00
22544;DHT22;11438;52.044;8.716;2023-04-25T06:44:42;11.10;95.80
22544;DHT22;11438;52.044;8.716;2023-04-25T06:47:07;11.10;95.70
22544;DHT22;11438;52.044;8.716;2023-04-25T06:49:33;11.10;95.50
22544;DHT22;11438;52.044;8.716;2023-04-25T06:51:58;11.10;94.90
22544;DHT22;11438;52.044;8.716;2023-04-25T06:54:24;11.10;95.10
22544;DHT22;11438;52.044;8.716;2023-04-25T06:56:52;11.10;95.30
22544;DHT22;11438;52.044;8.716;2023-04-25T06:59:18;11.20;95.10
22544;DHT22;11438;52.044;8.716;2023-04-25T07:01:43;11.20;94.70
22544;DHT22;11438;52.044;8.716;2023-04-25T07:04:09;11.20;94.90
22544;DHT22;11438;52.044;8.716;2023-04-25T07:06:35;11.20;95.00
22544;DHT22;11438;52.044;8.716;2023-04-25T07:09:03;11.30;94.80
22544;DHT22;11438;52.044;8.716;2023-04-25T07:11:30;11.30;94.60
22544;DHT22;11438;52.044;8.716;2023-04-25T07:13:55;11.30;94.40
22544;DHT22;11438;52.044;8.716;2023-04-25T07:16:20;11.30;94.20
22544;DHT22;11438;52.044;8.716;2023-04-25T07:18:46;11.30;94.20
22544;DHT22;11438;52.044;8.716;2023-04-25T07:21:11;11.30;94.30
22544;DHT22;11438;52.044;8.716;2023-04-25T07:23:37;11.30;94.40
22544;DHT22;11438;52.044;8.716;2023-04-25T07:26:06;11.30;94.00
22544;DHT22;11438;52.044;8.716;2023-04-25T07:28:31;11.40;94.00
22544;DHT22;11438;52.044;8.716;2023-04-25T07:30:57;11.40;94.20
22544;DHT22;11438;52.044;8.716;2023-04-25T07:33:23;11.40;93.60
22544;DHT22;11438;52.044;8.716;2023-04-25T07:35:48;11.50;93.30
22544;DHT22;11438;52.044;8.716;2023-04-25T07:38:14;11.50;93.50
22544;DHT22;11438;52.044;8.716;2023-04-25T07:40:40;11.60;93.40
22544;DHT22;11438;52.044;8.716;2023-04-25T07:43:05;11.60;93.00
22544;DHT22;11438;52.044;8.716;2023-04-25T07:45:31;11.60;92.90
22544;DHT22;11438;52.044;8.716;2023-04-25T07:47:56;11.60;92.60
22544;DHT22;11438;52.044;8.716;2023-04-25T07:50:22;11.70;92.30
22544;DHT22;11438;52.044;8.716;2023-04-25T07:52:47;11.70;92.50
22544;DHT22;11438;52.044;8.716;2023-04-25T07:55:13;11.70;92.50
22544;DHT22;11438;52.044;8.716;2023-04-25T07:57:38;11.80;92.40
22544;DHT22;11438;52.044;8.716;2023-04-25T08:00:05;11.80;92.20
22544;DHT22;11438;52.044;8.716;2023-04-25T08:02:35;11.80;92.00
22544;DHT22;11438;52.044;8.716;2023-04-25T08:05:00;11.90;92.00
22544;DHT22;11438;52.044;8.716;2023-04-25T08:07:26;11.90;91.90
22544;DHT22;11438;52.044;8.716;2023-04-25T08:09:51;11.90;91.70
22544;DHT22;11438;52.044;8.716;2023-04-25T08:12:17;11.90;91.80
22544;DHT22;11438;52.044;8.716;2023-04-25T08:14:43;11.90;91.50
22544;DHT22;11438;52.044;8.716;2023-04-25T08:17:09;12.00;91.30
22544;DHT22;11438;52.044;8.716;2023-04-25T08:19:35;12.00;90.80
22544;DHT22;11438;52.044;8.716;2023-04-25T08:22:00;11.90;90.70
22544;DHT22;11438;52.044;8.716;2023-04-25T08:24:26;11.90;91.00
22544;DHT22;11438;52.044;8.716;2023-04-25T08:26:51;11.90;90.60
22544;DHT22;11438;52.044;8.716;2023-04-25T08:29:17;11.90;90.70
22544;DHT22;11438;52.044;8.716;2023-04-25T08:31:43;12.00;90.60
22544;DHT22;11438;52.044;8.716;2023-04-25T08:34:08;12.00;90.30
22544;DHT22;11438;52.044;8.716;2023-04-25T08:36:34;12.10;90.60
22544;DHT22;11438;52.044;8.716;2023-04-25T08:39:00;12.20;90.30
22544;DHT22;11438;52.044;8.716;2023-04-25T08:41:26;12.20;89.30
22544;DHT22;11438;52.044;8.716;2023-04-25T08:43:53;12.30;89.50
22544;DHT22;11438;52.044;8.716;2023-04-25T08:46:21;12.30;89.60
22544;DHT22;11438;52.044;8.716;2023-04-25T08:48:48;12.30;88.60
22544;DHT22;11438;52.044;8.716;2023-04-25T08:51:24;12.30;88.70
22544;DHT22;11438;52.044;8.716;2023-04-25T08:53:51;12.30;88.20
22544;DHT22;11438;52.044;8.716;2023-04-25T08:56:17;12.40;87.40
22544;DHT22;11438;52.044;8.716;2023-04-25T08:58:47;12.40;88.00
22544;DHT22;11438;52.044;8.716;2023-04-25T09:01:13;12.40;88.70
22544;DHT22;11438;52.044;8.716;2023-04-25T09:03:38;12.40;89.20
22544;DHT22;11438;52.044;8.716;2023-04-25T09:06:04;12.40;90.00
22544;DHT22;11438;52.044;8.716;2023-04-25T09:08:30;12.50;86.90
22544;DHT22;11438;52.044;8.716;2023-04-25T09:10:55;12.50;88.00
22544;DHT22;11438;52.044;8.716;2023-04-25T09:13:28;12.50;87.30
22544;DHT22;11438;52.044;8.716;2023-04-25T09:15:56;12.60;85.60
22544;DHT22;11438;52.044;8.716;2023-04-25T09:20:49;12.60;86.30
22544;DHT22;11438;52.044;8.716;2023-04-25T09:23:15;12.70;85.80
22544;DHT22;11438;52.044;8.716;2023-04-25T09:25:40;12.70;85.80
22544;DHT22;11438;52.044;8.716;2023-04-25T09:28:08;12.70;84.30
22544;DHT22;11438;52.044;8.716;2023-04-25T09:30:35;12.60;84.90
22544;DHT22;11438;52.044;8.716;2023-04-25T09:33:11;12.60;83.20
22544;DHT22;11438;52.044;8.716;2023-04-25T09:35:42;12.60;83.00
22544;DHT22;11438;52.044;8.716;2023-04-25T09:38:12;12.60;82.70
22544;DHT22;11438;52.044;8.716;2023-04-25T09:40:42;12.60;82.90
22544;DHT22;11438;52.044;8.716;2023-04-25T09:45:45;12.60;82.40
22544;DHT22;11438;52.044;8.716;2023-04-25T09:48:11;12.70;84.80
22544;DHT22;11438;52.044;8.716;2023-04-25T09:50:37;12.70;83.40
22544;DHT22;11438;52.044;8.716;2023-04-25T09:53:06;12.80;82.60
22544;DHT22;11438;52.044;8.716;2023-04-25T09:55:32;12.80;82.90
22544;DHT22;11438;52.044;8.716;2023-04-25T09:58:05;12.80;83.00
22544;DHT22;11438;52.044;8.716;2023-04-25T10:00:33;12.80;80.90
22544;DHT22;11438;52.044;8.716;2023-04-25T10:03:01;12.90;81.80
22544;DHT22;11438;52.044;8.716;2023-04-25T10:05:30;12.80;80.70
22544;DHT22;11438;52.044;8.716;2023-04-25T10:07:58;12.80;79.30
22544;DHT22;11438;52.044;8.716;2023-04-25T10:10:26;12.80;79.60
22544;DHT22;11438;52.044;8.716;2023-04-25T10:12:53;12.70;80.70
22544;DHT22;11438;52.044;8.716;2023-04-25T10:15:20;12.70;79.90
22544;DHT22;11438;52.044;8.716;2023-04-25T10:17:46;12.60;81.30
22544;DHT22;11438;52.044;8.716;2023-04-25T10:20:12;12.70;82.80
22544;DHT22;11438;52.044;8.716;2023-04-25T10:22:43;12.70;84.20
22544;DHT22;11438;52.044;8.716;2023-04-25T10:25:10;12.70;82.80
22544;DHT22;11438;52.044;8.716;2023-04-25T10:27:36;12.70;80.40
22544;DHT22;11438;52.044;8.716;2023-04-25T10:30:09;12.80;79.50
22544;DHT22;11438;52.044;8.716;2023-04-25T10:32:39;12.80;80.30
22544;DHT22;11438;52.044;8.716;2023-04-25T10:35:11;12.80;78.20
22544;DHT22;11438;52.044;8.716;2023-04-25T10:37:37;12.80;77.70
22544;DHT22;11438;52.044;8.716;2023-04-25T10:40:10;12.90;76.70
22544;DHT22;11438;52.044;8.716;2023-04-25T10:42:35;12.90;78.00
22544;DHT22;11438;52.044;8.716;2023-04-25T10:45:04;12.90;79.20
22544;DHT22;11438;52.044;8.716;2023-04-25T10:47:36;12.90;79.70
22544;DHT22;11438;52.044;8.716;2023-04-25T10:50:08;12.90;79.60
22544;DHT22;11438;52.044;8.716;2023-04-25T10:52:34;12.90;79.10
22544;DHT22;11438;52.044;8.716;2023-04-25T10:55:03;12.90;76.80
22544;DHT22;11438;52.044;8.716;2023-04-25T11:00:00;12.90;77.30
22544;DHT22;11438;52.044;8.716;2023-04-25T11:02:27;12.90;77.50
22544;DHT22;11438;52.044;8.716;2023-04-25T11:04:56;12.90;78.20
22544;DHT22;11438;52.044;8.716;2023-04-25T11:07:29;13.00;78.10
22544;DHT22;11438;52.044;8.716;2023-04-25T11:09:57;13.10;77.80
22544;DHT22;11438;52.044;8.716;2023-04-25T11:12:26;13.00;77.50
22544;DHT22;11438;52.044;8.716;2023-04-25T11:15:02;13.10;78.40
22544;DHT22;11438;52.044;8.716;2023-04-25T11:17:28;13.00;77.60
22544;DHT22;11438;52.044;8.716;2023-04-25T11:19:54;13.10;79.00
22544;DHT22;11438;52.044;8.716;2023-04-25T11:22:22;13.00;77.50
22544;DHT22;11438;52.044;8.716;2023-04-25T11:24:47;13.00;77.30
22544;DHT22;11438;52.044;8.716;2023-04-25T11:27:13;13.10;78.10
22544;DHT22;11438;52.044;8.716;2023-04-25T11:29:39;13.00;78.50
22544;DHT22;11438;52.044;8.716;2023-04-25T11:32:05;13.00;78.40
22544;DHT22;11438;52.044;8.716;2023-04-25T11:34:32;13.00;78.20
22544;DHT22;11438;52.044;8.716;2023-04-25T11:37:01;13.00;79.00
22544;DHT22;11438;52.044;8.716;2023-04-25T11:39:27;13.00;79.10
22544;DHT22;11438;52.044;8.716;2023-04-25T11:41:54;13.10;77.70
22544;DHT22;11438;52.044;8.716;2023-04-25T11:44:20;13.10;77.60
22544;DHT22;11438;52.044;8.716;2023-04-25T11:46:46;13.10;78.20
22544;DHT22;11438;52.044;8.716;2023-04-25T11:49:13;13.20;79.30
22544;DHT22;11438;52.044;8.716;2023-04-25T11:51:44;13.20;79.70
22544;DHT22;11438;52.044;8.716;2023-04-25T11:54:10;13.30;81.10
22544;DHT22;11438;52.044;8.716;2023-04-25T11:56:37;13.30;81.10
22544;DHT22;11438;52.044;8.716;2023-04-25T11:59:04;13.40;80.40
22544;DHT22;11438;52.044;8.716;2023-04-25T12:01:32;13.50;79.10
22544;DHT22;11438;52.044;8.716;2023-04-25T12:04:09;13.50;78.10
22544;DHT22;11438;52.044;8.716;2023-04-25T12:06:37;13.50;77.50
22544;DHT22;11438;52.044;8.716;2023-04-25T12:09:08;13.60;77.00
22544;DHT22;11438;52.044;8.716;2023-04-25T12:11:54;13.60;77.90
22544;DHT22;11438;52.044;8.716;2023-04-25T12:14:25;13.50;77.60
22544;DHT22;11438;52.044;8.716;2023-04-25T12:16:52;13.60;77.90
22544;DHT22;11438;52.044;8.716;2023-04-25T12:19:19;13.60;76.50
22544;DHT22;11438;52.044;8.716;2023-04-25T12:21:46;13.60;77.90
22544;DHT22;11438;52.044;8.716;2023-04-25T12:24:23;13.60;78.70
22544;DHT22;11438;52.044;8.716;2023-04-25T12:26:58;13.60;79.40
22544;DHT22;11438;52.044;8.716;2023-04-25T12:29:26;13.70;80.20
22544;DHT22;11438;52.044;8.716;2023-04-25T12:31:53;13.80;80.00
22544;DHT22;11438;52.044;8.716;2023-04-25T12:34:20;13.80;80.40
22544;DHT22;11438;52.044;8.716;2023-04-25T12:36:46;13.90;79.30
22544;DHT22;11438;52.044;8.716;2023-04-25T12:39:20;13.90;79.10
22544;DHT22;11438;52.044;8.716;2023-04-25T12:41:47;14.00;78.80
22544;DHT22;11438;52.044;8.716;2023-04-25T12:44:13;14.00;77.10
22544;DHT22;11438;52.044;8.716;2023-04-25T12:46:39;14.10;76.80
22544;DHT22;11438;52.044;8.716;2023-04-25T12:49:07;14.20;78.40
22544;DHT22;11438;52.044;8.716;2023-04-25T12:51:34;14.20;77.90
22544;DHT22;11438;52.044;8.716;2023-04-25T12:53:59;14.30;78.70
22544;DHT22;11438;52.044;8.716;2023-04-25T12:56:26;14.30;76.10
22544;DHT22;11438;52.044;8.716;2023-04-25T12:58:52;14.40;75.40
22544;DHT22;11438;52.044;8.716;2023-04-25T13:01:19;14.50;75.70
22544;DHT22;11438;52.044;8.716;2023-04-25T13:03:44;14.50;76.50
22544;DHT22;11438;52.044;8.716;2023-04-25T13:06:10;14.60;76.20
22544;DHT22;11438;52.044;8.716;2023-04-25T13:08:36;14.70;75.40
22544;DHT22;11438;52.044;8.716;2023-04-25T13:11:03;14.70;74.60
22544;DHT22;11438;52.044;8.716;2023-04-25T13:13:29;14.70;74.70
22544;DHT22;11438;52.044;8.716;2023-04-25T13:15:56;14.80;73.70
22544;DHT22;11438;52.044;8.716;2023-04-25T13:18:22;14.80;74.10
22544;DHT22;11438;52.044;8.716;2023-04-25T13:20:54;14.80;73.60
22544;DHT22;11438;52.044;8.716;2023-04-25T13:23:20;14.80;72.60
22544;DHT22;11438;52.044;8.716;2023-04-25T13:25:46;14.80;74.00
22544;DHT22;11438;52.044;8.716;2023-04-25T13:28:12;14.70;73.40
22544;DHT22;11438;52.044;8.716;2023-04-25T13:30:38;14.70;72.50
22544;DHT22;11438;52.044;8.716;2023-04-25T13:33:03;14.60;71.50
22544;DHT22;11438;52.044;8.716;2023-04-25T13:35:30;14.50;72.80
22544;DHT22;11438;52.044;8.716;2023-04-25T13:37:56;14.30;75.20
22544;DHT22;11438;52.044;8.716;2023-04-25T13:40:21;14.20;76.40
22544;DHT22;11438;52.044;8.716;2023-04-25T13:42:47;14.00;76.10
22544;DHT22;11438;52.044;8.716;2023-04-25T13:45:12;13.70;75.80
22544;DHT22;11438;52.044;8.716;2023-04-25T13:47:38;13.50;76.50
22544;DHT22;11438;52.044;8.716;2023-04-25T13:50:05;13.30;77.80
22544;DHT22;11438;52.044;8.716;2023-04-25T13:52:31;13.10;78.20
22544;DHT22;11438;52.044;8.716;2023-04-25T13:54:57;13.00;78.70
22544;DHT22;11438;52.044;8.716;2023-04-25T13:57:23;12.80;80.50
22544;DHT22;11438;52.044;8.716;2023-04-25T13:59:48;12.70;81.50
22544;DHT22;11438;52.044;8.716;2023-04-25T14:02:14;12.70;82.40
22544;DHT22;11438;52.044;8.716;2023-04-25T14:04:40;12.70;83.40
22544;DHT22;11438;52.044;8.716;2023-04-25T14:07:06;12.70;83.60
22544;DHT22;11438;52.044;8.716;2023-04-25T14:09:31;12.70;84.60
22544;DHT22;11438;52.044;8.716;2023-04-25T14:11:57;12.70;84.90
22544;DHT22;11438;52.044;8.716;2023-04-25T14:14:23;12.80;85.50
22544;DHT22;11438;52.044;8.716;2023-04-25T14:16:49;12.90;84.30
22544;DHT22;11438;52.044;8.716;2023-04-25T14:19:15;12.90;84.20
22544;DHT22;11438;52.044;8.716;2023-04-25T14:21:41;13.00;85.00
22544;DHT22;11438;52.044;8.716;2023-04-25T14:24:08;13.00;85.10
22544;DHT22;11438;52.044;8.716;2023-04-25T14:26:34;13.10;85.80
22544;DHT22;11438;52.044;8.716;2023-04-25T14:29:00;13.20;85.50
22544;DHT22;11438;52.044;8.716;2023-04-25T14:31:26;13.30;85.30
22544;DHT22;11438;52.044;8.716;2023-04-25T14:33:52;13.40;85.80
22544;DHT22;11438;52.044;8.716;2023-04-25T14:36:18;13.50;86.20
22544;DHT22;11438;52.044;8.716;2023-04-25T14:38:43;13.70;85.60
22544;DHT22;11438;52.044;8.716;2023-04-25T14:41:09;13.80;85.60
22544;DHT22;11438;52.044;8.716;2023-04-25T14:43:35;13.90;85.30
22544;DHT22;11438;52.044;8.716;2023-04-25T14:46:02;14.10;84.70
22544;DHT22;11438;52.044;8.716;2023-04-25T14:48:28;14.20;82.90
22544;DHT22;11438;52.044;8.716;2023-04-25T14:50:54;14.30;77.20
22544;DHT22;11438;52.044;8.716;2023-04-25T14:53:22;14.40;76.00
22544;DHT22;11438;52.044;8.716;2023-04-25T14:55:47;14.40;73.00
22544;DHT22;11438;52.044;8.716;2023-04-25T14:58:14;14.40;73.40
22544;DHT22;11438;52.044;8.716;2023-04-25T15:00:39;14.40;74.20
22544;DHT22;11438;52.044;8.716;2023-04-25T15:03:05;14.40;75.10
22544;DHT22;11438;52.044;8.716;2023-04-25T15:05:33;14.50;74.60
22544;DHT22;11438;52.044;8.716;2023-04-25T15:07:58;14.50;74.00
22544;DHT22;11438;52.044;8.716;2023-04-25T15:10:24;14.50;73.30
22544;DHT22;11438;52.044;8.716;2023-04-25T15:12:49;14.60;73.50
22544;DHT22;11438;52.044;8.716;2023-04-25T15:15:15;14.60;74.10
22544;DHT22;11438;52.044;8.716;2023-04-25T15:17:42;14.70;72.70
22544;DHT22;11438;52.044;8.716;2023-04-25T15:20:08;14.70;71.80
22544;DHT22;11438;52.044;8.716;2023-04-25T15:22:42;14.70;72.80
22544;DHT22;11438;52.044;8.716;2023-04-25T15:25:09;14.60;73.90
22544;DHT22;11438;52.044;8.716;2023-04-25T15:27:35;14.50;75.10
22544;DHT22;11438;52.044;8.716;2023-04-25T15:30:07;14.50;74.90
22544;DHT22;11438;52.044;8.716;2023-04-25T15:32:34;14.40;74.70